createdAt,value
2024-05-09T00:01:57.266Z,15.60
2024-05-09T00:06:59.913Z,16.13
2024-05-09T00:12:02.501Z,16.45
2024-05-09T00:17:04.928Z,16.85
2024-05-09T00:22:07.255Z,16.60
2024-05-09T00:27:12.674Z,17.23
2024-05-09T00:32:15.698Z,16.25
2024-05-09T00:37:18.237Z,16.85
2024-05-09T00:42:20.633Z,17.20
2024-05-09T00:47:24.115Z,16.42
2024-05-09T00:52:27.939Z,16.80
2024-05-09T00:57:30.553Z,18.48
2024-05-09T01:02:33.333Z,16.63
2024-05-09T01:07:35.896Z,17.25
2024-05-09T01:12:38.251Z,15.90
2024-05-09T01:17:41.283Z,16.25
2024-05-09T01:22:44.595Z,16.17
2024-05-09T01:27:46.977Z,16.40
2024-05-09T01:32:49.564Z,17.45
2024-05-09T01:37:52.576Z,18.48
2024-05-09T01:42:54.932Z,17.70
2024-05-09T01:47:57.581Z,17.05
2024-05-09T01:53:00.693Z,16.83
2024-05-09T01:58:03.397Z,17.35
2024-05-09T02:03:10.767Z,17.42
2024-05-09T02:08:16.332Z,17.10
2024-05-09T02:13:18.967Z,16.95
2024-05-09T02:18:21.627Z,16.38
2024-05-09T02:23:24.150Z,16.00
2024-05-09T02:28:26.483Z,17.95
2024-05-09T02:33:28.928Z,17.58
2024-05-09T02:38:31.444Z,16.45
2024-05-09T02:43:33.869Z,17.50
2024-05-09T02:48:36.389Z,17.23
2024-05-09T02:53:38.941Z,15.73
2024-05-09T02:58:41.543Z,16.30
2024-05-09T03:03:46.006Z,15.02
2024-05-09T03:08:48.414Z,17.00
2024-05-09T03:13:51.934Z,15.68
2024-05-09T03:18:55.218Z,16.15
2024-05-09T03:23:57.907Z,16.90
2024-05-09T03:29:00.211Z,17.17
2024-05-09T03:34:02.845Z,16.55
2024-05-09T03:39:05.255Z,16.85
2024-05-09T03:44:08.132Z,16.30
2024-05-09T03:49:10.832Z,17.13
2024-05-09T03:54:13.382Z,16.73
2024-05-09T03:59:17.989Z,16.17
2024-05-09T04:04:20.376Z,17.60
2024-05-09T04:09:22.713Z,17.42
2024-05-09T04:14:25.077Z,16.73
2024-05-09T04:19:27.602Z,18.23
2024-05-09T04:24:30.086Z,16.20
2024-05-09T04:29:32.569Z,16.58
2024-05-09T04:34:36.079Z,16.10
2024-05-09T04:39:41.580Z,16.38
2024-05-09T04:44:44.100Z,16.23
2024-05-09T04:49:46.630Z,15.27
2024-05-09T04:54:50.098Z,15.63
2024-05-09T04:59:52.647Z,14.23
2024-05-09T05:04:55.373Z,15.05
2024-05-09T05:09:57.756Z,15.48
2024-05-09T05:15:00.243Z,15.35
2024-05-09T05:20:02.988Z,14.48
2024-05-09T05:25:06.100Z,14.73
2024-05-09T05:30:14.720Z,15.15
2024-05-09T05:35:20.301Z,15.38
2024-05-09T05:40:32.053Z,15.60
2024-05-09T05:45:39.209Z,15.82
2024-05-09T05:50:42.644Z,14.77
2024-05-09T05:55:45.001Z,16.02
2024-05-09T06:00:48.143Z,16.58
2024-05-09T06:05:51.369Z,17.17
2024-05-09T06:10:54.164Z,16.75
2024-05-09T06:15:56.544Z,18.65
2024-05-09T06:20:59.161Z,18.35
2024-05-09T06:26:01.812Z,17.45
2024-05-09T06:31:04.283Z,18.98
2024-05-09T06:36:06.858Z,19.45
2024-05-09T06:41:09.281Z,19.63
2024-05-09T06:46:11.612Z,20.38
2024-05-09T06:51:14.545Z,20.33
2024-05-09T06:56:17.226Z,19.70
2024-05-09T07:01:20.145Z,20.27
2024-05-09T07:06:22.906Z,22.08
2024-05-09T07:11:25.523Z,22.08
2024-05-09T07:16:27.940Z,20.95
2024-05-09T07:21:32.245Z,21.85
2024-05-09T07:26:34.927Z,21.80
2024-05-09T07:31:37.538Z,22.33
2024-05-09T07:36:39.922Z,21.05
2024-05-09T07:41:42.541Z,21.83
2024-05-09T07:47:48.468Z,21.38
2024-05-09T07:57:12.693Z,22.42
2024-05-09T08:02:15.180Z,21.35
2024-05-09T08:07:19.031Z,23.02
2024-05-09T08:12:21.367Z,20.42
2024-05-09T08:17:23.918Z,18.60
2024-05-09T08:22:26.332Z,19.30
2024-05-09T08:27:28.824Z,18.67
2024-05-09T08:32:32.427Z,18.38
2024-05-09T08:37:38.759Z,18.60
2024-05-09T08:42:49.209Z,17.08
2024-05-09T08:47:53.081Z,15.60
2024-05-09T08:52:55.619Z,15.40
2024-05-09T08:58:00.951Z,14.05
2024-05-09T09:03:06.871Z,14.18
2024-05-09T09:08:09.553Z,14.25
2024-05-09T09:13:12.056Z,12.77
2024-05-09T09:18:16.082Z,15.25
2024-05-09T09:23:18.554Z,15.18
2024-05-09T09:28:23.376Z,12.27
2024-05-09T09:33:26.164Z,13.52
2024-05-09T09:38:31.128Z,24.52
2024-05-09T09:43:33.754Z,13.38
2024-05-09T09:48:38.038Z,13.25
2024-05-09T09:53:42.470Z,13.10
2024-05-09T09:58:46.695Z,12.10
2024-05-09T10:03:49.354Z,14.35
2024-05-09T10:08:52.431Z,14.95
2024-05-09T10:13:56.949Z,14.70
2024-05-09T10:18:59.533Z,12.68
2024-05-09T10:24:03.727Z,15.25
2024-05-09T10:29:13.459Z,16.00
2024-05-09T10:34:20.841Z,13.43
2024-05-09T10:39:25.260Z,14.48
2024-05-09T10:44:27.591Z,14.35
2024-05-09T10:49:30.143Z,11.68
2024-05-09T10:54:36.769Z,13.88
2024-05-09T10:59:39.755Z,11.90
2024-05-09T11:04:44.550Z,14.30
2024-05-09T11:09:48.184Z,13.60
2024-05-09T11:14:54.303Z,13.15
2024-05-09T11:19:56.988Z,12.50
2024-05-09T11:24:59.624Z,12.25
2024-05-09T11:30:02.367Z,9.60
2024-05-09T11:35:05.873Z,11.15
2024-05-09T11:40:13.932Z,10.63
2024-05-09T11:45:23.369Z,9.05
2024-05-09T11:50:30.333Z,8.50
2024-05-09T11:55:38.169Z,9.20
2024-05-09T12:00:40.575Z,10.85
2024-05-09T12:05:43.291Z,10.75
2024-05-09T12:10:46.131Z,10.35
2024-05-09T12:15:48.849Z,11.52
2024-05-09T12:20:51.267Z,11.85
2024-05-09T12:25:53.953Z,7.32
2024-05-09T12:30:56.315Z,11.13
2024-05-09T12:35:58.756Z,7.60
2024-05-09T12:41:01.490Z,7.38
2024-05-09T12:46:04.480Z,7.78
2024-05-09T12:51:06.896Z,8.38
2024-05-09T12:56:09.614Z,7.13
2024-05-09T13:01:12.048Z,8.48
2024-05-09T13:06:14.381Z,6.95
2024-05-09T13:11:16.835Z,10.52
2024-05-09T13:16:19.317Z,10.30
2024-05-09T13:21:21.745Z,13.70
2024-05-09T13:26:24.122Z,13.02
2024-05-09T13:31:26.605Z,12.30
2024-05-09T13:36:29.215Z,11.98
2024-05-09T13:41:31.805Z,13.32
2024-05-09T13:46:34.525Z,13.90
2024-05-09T13:51:36.884Z,12.23
2024-05-09T13:56:39.564Z,13.25
2024-05-09T14:01:42.126Z,13.40
2024-05-09T14:06:44.741Z,12.30
2024-05-09T14:11:47.367Z,13.27
2024-05-09T14:16:50.164Z,14.38
2024-05-09T14:21:52.562Z,13.55
2024-05-09T14:26:55.083Z,13.68
2024-05-09T14:31:57.453Z,16.10
2024-05-09T14:36:59.942Z,14.93
2024-05-09T14:42:02.587Z,15.07
2024-05-09T14:47:05.148Z,16.25
2024-05-09T14:52:07.568Z,14.90
2024-05-09T14:57:10.078Z,13.95
2024-05-09T15:02:12.562Z,13.70
2024-05-09T15:07:15.132Z,13.27
2024-05-09T15:12:17.447Z,12.85
2024-05-09T15:17:19.843Z,12.00
2024-05-09T15:22:22.225Z,11.63
2024-05-09T15:27:24.630Z,10.23
2024-05-09T15:32:29.529Z,13.73
2024-05-09T15:37:32.473Z,10.95
2024-05-09T15:42:34.911Z,11.90
2024-05-09T15:47:38.014Z,11.35
2024-05-09T15:52:40.515Z,13.23
2024-05-09T15:57:42.981Z,9.70
2024-05-09T16:02:45.516Z,11.73
2024-05-09T16:07:48.097Z,9.23
2024-05-09T16:12:50.492Z,11.45
2024-05-09T16:17:53.925Z,11.00
2024-05-09T16:22:56.352Z,8.80
2024-05-09T16:27:59.028Z,8.75
2024-05-09T16:33:01.914Z,9.40
2024-05-09T16:38:06.037Z,10.07
2024-05-09T16:43:13.016Z,8.00
2024-05-09T16:48:16.039Z,10.85
2024-05-09T16:53:19.111Z,13.32
2024-05-09T16:58:21.661Z,10.68
2024-05-09T17:03:24.183Z,13.27
2024-05-09T17:08:26.645Z,13.25
2024-05-09T17:13:29.128Z,14.25
2024-05-09T17:18:31.857Z,12.85
2024-05-09T17:23:35.042Z,11.77
2024-05-09T17:28:37.918Z,20.95
2024-05-09T17:33:40.402Z,14.85
2024-05-09T17:38:43.154Z,11.93
2024-05-09T17:43:46.934Z,14.10
2024-05-09T17:48:49.704Z,13.68
2024-05-09T17:53:52.252Z,14.38
2024-05-09T17:58:54.782Z,16.60
2024-05-09T18:03:57.450Z,14.43
2024-05-09T18:09:00.231Z,15.45
2024-05-09T18:14:02.605Z,17.10
2024-05-09T18:19:05.165Z,17.85
2024-05-09T18:24:09.826Z,18.48
2024-05-09T18:29:26.619Z,18.75
2024-05-09T18:34:29.174Z,17.95
2024-05-09T18:39:31.625Z,18.90
2024-05-09T18:44:34.008Z,20.00
2024-05-09T18:49:36.720Z,19.70
2024-05-09T18:54:39.350Z,18.85
2024-05-09T18:59:41.917Z,20.52
2024-05-09T19:04:45.328Z,20.92
2024-05-09T19:09:48.158Z,21.83
2024-05-09T19:14:50.717Z,22.13
2024-05-09T19:19:53.177Z,20.13
2024-05-09T19:24:55.640Z,20.02
2024-05-09T19:29:58.095Z,19.45
2024-05-09T19:35:00.736Z,19.83
2024-05-09T19:40:06.754Z,19.15
2024-05-09T19:45:10.771Z,23.25
2024-05-09T19:50:19.552Z,21.80
2024-05-09T19:55:25.713Z,24.08
2024-05-09T20:00:32.995Z,22.98
2024-05-09T20:05:39.034Z,23.33
2024-05-09T20:10:41.928Z,21.15
2024-05-09T20:15:44.376Z,24.40
2024-05-09T20:20:48.255Z,22.63
2024-05-09T20:25:52.162Z,24.08
2024-05-09T20:30:54.511Z,24.00
2024-05-09T20:36:01.616Z,23.33
2024-05-09T20:41:04.842Z,21.42
2024-05-09T20:46:07.201Z,22.05
2024-05-09T20:51:09.986Z,25.92
2024-05-09T20:56:12.306Z,26.08
2024-05-09T21:01:14.732Z,26.27
2024-05-09T21:06:17.067Z,25.95
2024-05-09T21:11:22.805Z,26.42
2024-05-09T21:16:25.391Z,26.70
2024-05-09T21:21:27.829Z,26.73
2024-05-09T21:26:30.208Z,26.52
2024-05-09T21:31:32.704Z,28.05
2024-05-09T21:36:35.243Z,28.98
2024-05-09T21:41:37.603Z,29.60
2024-05-09T21:46:40.215Z,30.05
2024-05-09T21:51:42.826Z,31.85
2024-05-09T21:56:45.392Z,27.85
2024-05-09T22:01:48.342Z,30.92
2024-05-09T22:06:51.163Z,31.83
2024-05-09T22:11:54.486Z,29.30
2024-05-09T22:16:57.134Z,32.40
2024-05-09T22:22:00.218Z,32.20
2024-05-09T22:27:02.914Z,31.70
2024-05-09T22:32:05.800Z,34.45
2024-05-09T22:37:08.293Z,31.67
2024-05-09T22:42:10.753Z,31.00
2024-05-09T22:47:13.171Z,33.45
2024-05-09T22:52:15.725Z,34.10
2024-05-09T22:57:18.189Z,33.33
2024-05-09T23:02:20.591Z,32.35
2024-05-09T23:07:23.020Z,30.50
2024-05-09T23:12:25.380Z,30.42
2024-05-09T23:17:27.736Z,32.53
2024-05-09T23:22:30.129Z,34.15
2024-05-09T23:27:32.529Z,32.63
2024-05-09T23:32:34.946Z,31.73
2024-05-09T23:37:37.580Z,31.30
2024-05-09T23:42:42.885Z,31.20
2024-05-09T23:47:47.257Z,31.65
2024-05-09T23:52:49.841Z,30.58
2024-05-09T23:57:52.440Z,33.42
